sensor_id;sensor_type;location;lat;lon;timestamp;P1;durP1;ratioP1;P2;durP2;ratioP2
3571;SDS011;7958;53.024;12.970;2022-11-20T00:02:09;6.97;;;5.07;;
3571;SDS011;7958;53.024;12.970;2022-11-20T00:04:36;7.87;;;5.97;;
3571;SDS011;7958;53.024;12.970;2022-11-20T00:07:04;5.73;;;5.13;;
3571;SDS011;7958;53.024;12.970;2022-11-20T00:09:31;8.20;;;5.40;;
3571;SDS011;7958;53.024;12.970;2022-11-20T00:11:57;6.00;;;5.00;;
3571;SDS011;7958;53.024;12.970;2022-11-20T00:14:23;9.17;;;6.23;;
3571;SDS011;7958;53.024;12.970;2022-11-20T00:16:50;10.73;;;6.53;;
3571;SDS011;7958;53.024;12.970;2022-11-20T00:19:17;9.73;;;6.80;;
3571;SDS011;7958;53.024;12.970;2022-11-20T00:21:44;12.40;;;7.43;;
3571;SDS011;7958;53.024;12.970;2022-11-20T00:24:10;11.97;;;7.17;;
3571;SDS011;7958;53.024;12.970;2022-11-20T00:26:47;9.47;;;6.70;;
3571;SDS011;7958;53.024;12.970;2022-11-20T00:29:13;12.37;;;6.93;;
3571;SDS011;7958;53.024;12.970;2022-11-20T00:31:40;9.00;;;6.63;;
3571;SDS011;7958;53.024;12.970;2022-11-20T00:34:06;12.43;;;7.77;;
3571;SDS011;7958;53.024;12.970;2022-11-20T00:36:34;11.83;;;7.50;;
3571;SDS011;7958;53.024;12.970;2022-11-20T00:39:01;11.13;;;6.77;;
3571;SDS011;7958;53.024;12.970;2022-11-20T00:41:28;12.97;;;7.63;;
3571;SDS011;7958;53.024;12.970;2022-11-20T00:43:54;11.03;;;7.17;;
3571;SDS011;7958;53.024;12.970;2022-11-20T00:46:22;10.07;;;7.47;;
3571;SDS011;7958;53.024;12.970;2022-11-20T00:48:49;11.23;;;7.60;;
3571;SDS011;7958;53.024;12.970;2022-11-20T00:51:17;10.43;;;6.97;;
3571;SDS011;7958;53.024;12.970;2022-11-20T00:53:46;13.97;;;8.07;;
3571;SDS011;7958;53.024;12.970;2022-11-20T00:56:14;9.33;;;7.60;;
3571;SDS011;7958;53.024;12.970;2022-11-20T00:58:41;10.30;;;7.50;;
3571;SDS011;7958;53.024;12.970;2022-11-20T01:01:10;11.97;;;8.33;;
3571;SDS011;7958;53.024;12.970;2022-11-20T01:03:38;10.00;;;7.57;;
3571;SDS011;7958;53.024;12.970;2022-11-20T01:06:06;11.17;;;7.60;;
3571;SDS011;7958;53.024;12.970;2022-11-20T01:08:35;10.10;;;6.97;;
3571;SDS011;7958;53.024;12.970;2022-11-20T01:11:04;12.00;;;7.33;;
3571;SDS011;7958;53.024;12.970;2022-11-20T01:13:32;8.87;;;6.80;;
3571;SDS011;7958;53.024;12.970;2022-11-20T01:16:05;10.20;;;6.57;;
3571;SDS011;7958;53.024;12.970;2022-11-20T01:18:33;9.13;;;6.73;;
3571;SDS011;7958;53.024;12.970;2022-11-20T01:21:00;9.30;;;6.80;;
3571;SDS011;7958;53.024;12.970;2022-11-20T01:23:30;11.17;;;6.73;;
3571;SDS011;7958;53.024;12.970;2022-11-20T01:25:58;10.50;;;7.30;;
3571;SDS011;7958;53.024;12.970;2022-11-20T01:28:27;11.70;;;7.77;;
3571;SDS011;7958;53.024;12.970;2022-11-20T01:30:54;12.23;;;7.70;;
3571;SDS011;7958;53.024;12.970;2022-11-20T01:33:20;11.43;;;8.17;;
3571;SDS011;7958;53.024;12.970;2022-11-20T01:35:47;13.80;;;7.40;;
3571;SDS011;7958;53.024;12.970;2022-11-20T01:38:14;14.17;;;8.87;;
3571;SDS011;7958;53.024;12.970;2022-11-20T01:40:40;13.70;;;8.60;;
3571;SDS011;7958;53.024;12.970;2022-11-20T01:43:10;14.03;;;9.50;;
3571;SDS011;7958;53.024;12.970;2022-11-20T01:45:57;12.37;;;8.33;;
3571;SDS011;7958;53.024;12.970;2022-11-20T01:48:26;12.40;;;8.50;;
3571;SDS011;7958;53.024;12.970;2022-11-20T01:50:56;11.47;;;8.70;;
3571;SDS011;7958;53.024;12.970;2022-11-20T01:53:24;15.10;;;9.47;;
3571;SDS011;7958;53.024;12.970;2022-11-20T01:55:56;11.30;;;8.87;;
3571;SDS011;7958;53.024;12.970;2022-11-20T01:58:24;15.30;;;9.83;;
3571;SDS011;7958;53.024;12.970;2022-11-20T02:00:56;20.03;;;10.27;;
3571;SDS011;7958;53.024;12.970;2022-11-20T02:03:26;14.83;;;9.27;;
3571;SDS011;7958;53.024;12.970;2022-11-20T02:05:54;15.90;;;10.57;;
3571;SDS011;7958;53.024;12.970;2022-11-20T02:08:22;15.30;;;9.50;;
3571;SDS011;7958;53.024;12.970;2022-11-20T02:10:49;14.60;;;9.40;;
3571;SDS011;7958;53.024;12.970;2022-11-20T02:13:16;16.30;;;9.97;;
3571;SDS011;7958;53.024;12.970;2022-11-20T02:16:04;16.50;;;9.73;;
3571;SDS011;7958;53.024;12.970;2022-11-20T02:18:34;15.60;;;9.93;;
3571;SDS011;7958;53.024;12.970;2022-11-20T02:21:03;14.20;;;9.40;;
3571;SDS011;7958;53.024;12.970;2022-11-20T02:23:33;15.00;;;9.83;;
3571;SDS011;7958;53.024;12.970;2022-11-20T02:26:06;17.90;;;10.90;;
3571;SDS011;7958;53.024;12.970;2022-11-20T02:28:35;17.27;;;10.37;;
3571;SDS011;7958;53.024;12.970;2022-11-20T02:31:04;15.20;;;10.57;;
3571;SDS011;7958;53.024;12.970;2022-11-20T02:33:30;18.67;;;10.73;;
3571;SDS011;7958;53.024;12.970;2022-11-20T02:35:57;17.70;;;9.87;;
3571;SDS011;7958;53.024;12.970;2022-11-20T02:38:23;16.80;;;10.70;;
3571;SDS011;7958;53.024;12.970;2022-11-20T02:40:50;15.23;;;10.30;;
3571;SDS011;7958;53.024;12.970;2022-11-20T02:43:17;18.23;;;10.83;;
3571;SDS011;7958;53.024;12.970;2022-11-20T02:45:44;15.03;;;9.97;;
3571;SDS011;7958;53.024;12.970;2022-11-20T02:48:13;18.97;;;10.83;;
3571;SDS011;7958;53.024;12.970;2022-11-20T02:50:40;16.80;;;10.47;;
3571;SDS011;7958;53.024;12.970;2022-11-20T02:53:06;19.77;;;9.83;;
3571;SDS011;7958;53.024;12.970;2022-11-20T02:55:33;17.13;;;9.73;;
3571;SDS011;7958;53.024;12.970;2022-11-20T02:57:59;18.10;;;10.97;;
3571;SDS011;7958;53.024;12.970;2022-11-20T03:00:27;18.07;;;10.87;;
3571;SDS011;7958;53.024;12.970;2022-11-20T03:02:56;17.90;;;10.53;;
3571;SDS011;7958;53.024;12.970;2022-11-20T03:05:23;15.50;;;10.53;;
3571;SDS011;7958;53.024;12.970;2022-11-20T03:07:49;20.80;;;11.17;;
3571;SDS011;7958;53.024;12.970;2022-11-20T03:10:16;18.17;;;11.10;;
3571;SDS011;7958;53.024;12.970;2022-11-20T03:12:42;15.73;;;10.30;;
3571;SDS011;7958;53.024;12.970;2022-11-20T03:15:09;17.30;;;10.30;;
3571;SDS011;7958;53.024;12.970;2022-11-20T03:17:36;18.17;;;11.17;;
3571;SDS011;7958;53.024;12.970;2022-11-20T03:20:03;16.37;;;10.47;;
3571;SDS011;7958;53.024;12.970;2022-11-20T03:22:30;15.33;;;10.40;;
3571;SDS011;7958;53.024;12.970;2022-11-20T03:24:59;14.57;;;9.83;;
3571;SDS011;7958;53.024;12.970;2022-11-20T03:27:31;15.63;;;10.40;;
3571;SDS011;7958;53.024;12.970;2022-11-20T03:29:58;16.10;;;10.37;;
3571;SDS011;7958;53.024;12.970;2022-11-20T03:32:24;15.10;;;10.57;;
3571;SDS011;7958;53.024;12.970;2022-11-20T03:34:52;17.83;;;10.97;;
3571;SDS011;7958;53.024;12.970;2022-11-20T03:37:18;15.57;;;10.17;;
3571;SDS011;7958;53.024;12.970;2022-11-20T03:39:44;13.90;;;9.40;;
3571;SDS011;7958;53.024;12.970;2022-11-20T03:42:15;21.37;;;11.00;;
3571;SDS011;7958;53.024;12.970;2022-11-20T03:44:55;15.20;;;10.20;;
3571;SDS011;7958;53.024;12.970;2022-11-20T03:47:24;14.80;;;9.53;;
3571;SDS011;7958;53.024;12.970;2022-11-20T03:49:50;19.03;;;11.00;;
3571;SDS011;7958;53.024;12.970;2022-11-20T03:52:18;16.73;;;10.43;;
3571;SDS011;7958;53.024;12.970;2022-11-20T03:54:44;16.93;;;10.50;;
3571;SDS011;7958;53.024;12.970;2022-11-20T03:57:13;16.93;;;10.40;;
3571;SDS011;7958;53.024;12.970;2022-11-20T03:59:40;21.77;;;9.90;;
3571;SDS011;7958;53.024;12.970;2022-11-20T04:02:06;12.20;;;8.53;;
3571;SDS011;7958;53.024;12.970;2022-11-20T04:04:32;15.90;;;9.47;;
3571;SDS011;7958;53.024;12.970;2022-11-20T04:07:01;20.60;;;8.63;;
3571;SDS011;7958;53.024;12.970;2022-11-20T04:09:29;15.27;;;9.93;;
3571;SDS011;7958;53.024;12.970;2022-11-20T04:11:56;16.40;;;10.07;;
3571;SDS011;7958;53.024;12.970;2022-11-20T04:14:22;16.37;;;9.30;;
3571;SDS011;7958;53.024;12.970;2022-11-20T04:16:52;13.00;;;8.40;;
3571;SDS011;7958;53.024;12.970;2022-11-20T04:19:18;15.60;;;10.03;;
3571;SDS011;7958;53.024;12.970;2022-11-20T04:21:47;15.47;;;10.20;;
3571;SDS011;7958;53.024;12.970;2022-11-20T04:24:14;16.23;;;9.40;;
3571;SDS011;7958;53.024;12.970;2022-11-20T04:26:42;14.00;;;9.03;;
3571;SDS011;7958;53.024;12.970;2022-11-20T04:29:11;14.73;;;9.60;;
3571;SDS011;7958;53.024;12.970;2022-11-20T04:31:38;16.40;;;9.60;;
3571;SDS011;7958;53.024;12.970;2022-11-20T04:34:07;15.00;;;9.40;;
3571;SDS011;7958;53.024;12.970;2022-11-20T04:36:33;15.80;;;9.80;;
3571;SDS011;7958;53.024;12.970;2022-11-20T04:39:00;16.80;;;9.70;;
3571;SDS011;7958;53.024;12.970;2022-11-20T04:41:28;15.53;;;9.93;;
3571;SDS011;7958;53.024;12.970;2022-11-20T04:43:58;17.00;;;10.80;;
3571;SDS011;7958;53.024;12.970;2022-11-20T04:46:28;16.03;;;10.30;;
3571;SDS011;7958;53.024;12.970;2022-11-20T04:48:55;16.87;;;10.20;;
3571;SDS011;7958;53.024;12.970;2022-11-20T04:51:21;18.70;;;11.00;;
3571;SDS011;7958;53.024;12.970;2022-11-20T04:53:47;18.03;;;11.07;;
3571;SDS011;7958;53.024;12.970;2022-11-20T04:56:14;16.30;;;10.60;;
3571;SDS011;7958;53.024;12.970;2022-11-20T04:58:50;16.90;;;10.23;;
3571;SDS011;7958;53.024;12.970;2022-11-20T05:01:28;18.50;;;11.03;;
3571;SDS011;7958;53.024;12.970;2022-11-20T05:03:55;18.40;;;11.23;;
3571;SDS011;7958;53.024;12.970;2022-11-20T05:06:22;19.93;;;10.83;;
3571;SDS011;7958;53.024;12.970;2022-11-20T05:08:48;19.90;;;11.33;;
3571;SDS011;7958;53.024;12.970;2022-11-20T05:11:18;16.47;;;10.00;;
3571;SDS011;7958;53.024;12.970;2022-11-20T05:13:45;18.83;;;11.53;;
3571;SDS011;7958;53.024;12.970;2022-11-20T05:16:14;16.90;;;11.27;;
3571;SDS011;7958;53.024;12.970;2022-11-20T05:18:41;19.50;;;12.37;;
3571;SDS011;7958;53.024;12.970;2022-11-20T05:21:08;19.93;;;12.30;;
3571;SDS011;7958;53.024;12.970;2022-11-20T05:23:37;14.53;;;10.20;;
3571;SDS011;7958;53.024;12.970;2022-11-20T05:26:04;17.73;;;10.80;;
3571;SDS011;7958;53.024;12.970;2022-11-20T05:28:39;21.47;;;12.57;;
3571;SDS011;7958;53.024;12.970;2022-11-20T05:31:05;18.17;;;11.07;;
3571;SDS011;7958;53.024;12.970;2022-11-20T05:33:36;20.13;;;11.63;;
3571;SDS011;7958;53.024;12.970;2022-11-20T05:36:08;17.93;;;11.20;;
3571;SDS011;7958;53.024;12.970;2022-11-20T05:38:36;19.50;;;11.57;;
3571;SDS011;7958;53.024;12.970;2022-11-20T05:41:03;16.57;;;11.27;;
3571;SDS011;7958;53.024;12.970;2022-11-20T05:43:34;17.37;;;11.73;;
3571;SDS011;7958;53.024;12.970;2022-11-20T05:46:01;20.60;;;12.23;;
3571;SDS011;7958;53.024;12.970;2022-11-20T05:48:28;17.47;;;10.83;;
3571;SDS011;7958;53.024;12.970;2022-11-20T05:50:57;16.50;;;11.17;;
3571;SDS011;7958;53.024;12.970;2022-11-20T05:53:24;19.53;;;11.40;;
3571;SDS011;7958;53.024;12.970;2022-11-20T05:55:57;19.87;;;11.50;;
3571;SDS011;7958;53.024;12.970;2022-11-20T05:58:24;18.43;;;10.43;;
3571;SDS011;7958;53.024;12.970;2022-11-20T06:00:51;17.07;;;11.00;;
3571;SDS011;7958;53.024;12.970;2022-11-20T06:03:19;20.80;;;11.10;;
3571;SDS011;7958;53.024;12.970;2022-11-20T06:05:50;18.70;;;11.90;;
3571;SDS011;7958;53.024;12.970;2022-11-20T06:08:18;18.87;;;11.73;;
3571;SDS011;7958;53.024;12.970;2022-11-20T06:10:44;18.90;;;11.63;;
3571;SDS011;7958;53.024;12.970;2022-11-20T06:13:13;15.70;;;10.97;;
3571;SDS011;7958;53.024;12.970;2022-11-20T06:15:47;18.30;;;11.10;;
3571;SDS011;7958;53.024;12.970;2022-11-20T06:18:15;19.63;;;11.97;;
3571;SDS011;7958;53.024;12.970;2022-11-20T06:20:41;19.60;;;12.23;;
3571;SDS011;7958;53.024;12.970;2022-11-20T06:23:08;16.27;;;10.10;;
3571;SDS011;7958;53.024;12.970;2022-11-20T06:25:39;22.47;;;11.83;;
3571;SDS011;7958;53.024;12.970;2022-11-20T06:28:06;19.20;;;11.73;;
3571;SDS011;7958;53.024;12.970;2022-11-20T06:30:33;20.80;;;10.43;;
3571;SDS011;7958;53.024;12.970;2022-11-20T06:33:00;20.70;;;11.30;;
3571;SDS011;7958;53.024;12.970;2022-11-20T06:35:26;18.87;;;12.37;;
3571;SDS011;7958;53.024;12.970;2022-11-20T06:37:55;20.53;;;12.83;;
3571;SDS011;7958;53.024;12.970;2022-11-20T06:40:22;21.17;;;12.50;;
3571;SDS011;7958;53.024;12.970;2022-11-20T06:42:50;19.00;;;12.90;;
3571;SDS011;7958;53.024;12.970;2022-11-20T06:45:16;17.70;;;11.13;;
3571;SDS011;7958;53.024;12.970;2022-11-20T06:47:42;18.03;;;11.47;;
3571;SDS011;7958;53.024;12.970;2022-11-20T06:50:09;21.30;;;12.03;;
3571;SDS011;7958;53.024;12.970;2022-11-20T06:52:37;21.67;;;11.90;;
3571;SDS011;7958;53.024;12.970;2022-11-20T06:55:04;18.33;;;11.70;;
3571;SDS011;7958;53.024;12.970;2022-11-20T06:57:33;20.03;;;12.30;;
3571;SDS011;7958;53.024;12.970;2022-11-20T07:00:08;25.50;;;12.10;;
3571;SDS011;7958;53.024;12.970;2022-11-20T07:02:35;20.53;;;12.03;;
3571;SDS011;7958;53.024;12.970;2022-11-20T07:05:02;20.10;;;12.03;;
3571;SDS011;7958;53.024;12.970;2022-11-20T07:07:28;18.00;;;11.27;;
3571;SDS011;7958;53.024;12.970;2022-11-20T07:09:55;20.07;;;10.57;;
3571;SDS011;7958;53.024;12.970;2022-11-20T07:12:24;20.33;;;12.30;;
3571;SDS011;7958;53.024;12.970;2022-11-20T07:14:50;18.30;;;10.97;;
3571;SDS011;7958;53.024;12.970;2022-11-20T07:17:18;19.50;;;11.60;;
3571;SDS011;7958;53.024;12.970;2022-11-20T07:19:44;19.63;;;12.07;;
3571;SDS011;7958;53.024;12.970;2022-11-20T07:22:10;19.90;;;12.10;;
3571;SDS011;7958;53.024;12.970;2022-11-20T07:24:37;19.13;;;11.80;;
3571;SDS011;7958;53.024;12.970;2022-11-20T07:27:04;20.20;;;12.30;;
3571;SDS011;7958;53.024;12.970;2022-11-20T07:29:30;23.00;;;11.80;;
3571;SDS011;7958;53.024;12.970;2022-11-20T07:31:59;19.77;;;11.90;;
3571;SDS011;7958;53.024;12.970;2022-11-20T07:34:26;18.97;;;11.57;;
3571;SDS011;7958;53.024;12.970;2022-11-20T07:36:53;22.50;;;12.33;;
3571;SDS011;7958;53.024;12.970;2022-11-20T07:39:20;21.40;;;12.10;;
3571;SDS011;7958;53.024;12.970;2022-11-20T07:41:46;15.73;;;10.80;;
3571;SDS011;7958;53.024;12.970;2022-11-20T07:44:12;19.60;;;12.13;;
3571;SDS011;7958;53.024;12.970;2022-11-20T07:46:38;19.27;;;12.37;;
3571;SDS011;7958;53.024;12.970;2022-11-20T07:49:07;17.90;;;11.73;;
3571;SDS011;7958;53.024;12.970;2022-11-20T07:51:38;20.47;;;11.93;;
3571;SDS011;7958;53.024;12.970;2022-11-20T07:54:04;25.80;;;12.27;;
3571;SDS011;7958;53.024;12.970;2022-11-20T07:56:31;15.27;;;10.57;;
3571;SDS011;7958;53.024;12.970;2022-11-20T07:58:57;18.63;;;10.90;;
3571;SDS011;7958;53.024;12.970;2022-11-20T08:01:23;20.20;;;11.70;;
3571;SDS011;7958;53.024;12.970;2022-11-20T08:03:50;19.53;;;11.30;;
3571;SDS011;7958;53.024;12.970;2022-11-20T08:06:19;16.43;;;10.60;;
3571;SDS011;7958;53.024;12.970;2022-11-20T08:08:47;17.07;;;11.50;;
3571;SDS011;7958;53.024;12.970;2022-11-20T08:11:14;16.53;;;10.70;;
3571;SDS011;7958;53.024;12.970;2022-11-20T08:13:58;16.80;;;10.50;;
3571;SDS011;7958;53.024;12.970;2022-11-20T08:16:40;16.50;;;11.13;;
3571;SDS011;7958;53.024;12.970;2022-11-20T08:19:08;15.20;;;10.20;;
3571;SDS011;7958;53.024;12.970;2022-11-20T08:21:34;17.90;;;11.80;;
3571;SDS011;7958;53.024;12.970;2022-11-20T08:24:02;17.30;;;10.90;;
3571;SDS011;7958;53.024;12.970;2022-11-20T08:26:29;15.27;;;11.17;;
3571;SDS011;7958;53.024;12.970;2022-11-20T08:28:56;16.50;;;11.20;;
3571;SDS011;7958;53.024;12.970;2022-11-20T08:31:23;19.03;;;12.00;;
3571;SDS011;7958;53.024;12.970;2022-11-20T08:33:50;15.93;;;11.10;;
3571;SDS011;7958;53.024;12.970;2022-11-20T08:36:17;16.03;;;11.00;;
3571;SDS011;7958;53.024;12.970;2022-11-20T08:38:46;20.20;;;12.20;;
3571;SDS011;7958;53.024;12.970;2022-11-20T08:41:14;19.20;;;11.63;;
3571;SDS011;7958;53.024;12.970;2022-11-20T08:43:51;19.73;;;10.90;;
3571;SDS011;7958;53.024;12.970;2022-11-20T08:46:18;18.53;;;11.10;;
3571;SDS011;7958;53.024;12.970;2022-11-20T08:48:45;20.60;;;12.13;;
3571;SDS011;7958;53.024;12.970;2022-11-20T08:51:11;21.13;;;11.33;;
3571;SDS011;7958;53.024;12.970;2022-11-20T08:53:38;17.43;;;11.67;;
3571;SDS011;7958;53.024;12.970;2022-11-20T08:56:05;17.97;;;11.47;;
3571;SDS011;7958;53.024;12.970;2022-11-20T08:58:33;16.57;;;11.10;;
3571;SDS011;7958;53.024;12.970;2022-11-20T09:01:00;18.33;;;12.23;;
3571;SDS011;7958;53.024;12.970;2022-11-20T09:03:27;17.57;;;11.30;;
3571;SDS011;7958;53.024;12.970;2022-11-20T09:05:56;18.77;;;11.60;;
3571;SDS011;7958;53.024;12.970;2022-11-20T09:08:24;15.70;;;10.80;;
3571;SDS011;7958;53.024;12.970;2022-11-20T09:10:51;15.90;;;11.03;;
3571;SDS011;7958;53.024;12.970;2022-11-20T09:13:17;16.17;;;11.17;;
3571;SDS011;7958;53.024;12.970;2022-11-20T09:15:45;19.37;;;11.73;;
3571;SDS011;7958;53.024;12.970;2022-11-20T09:18:12;15.13;;;10.43;;
3571;SDS011;7958;53.024;12.970;2022-11-20T09:20:38;20.40;;;12.73;;
3571;SDS011;7958;53.024;12.970;2022-11-20T09:23:05;18.57;;;12.20;;
3571;SDS011;7958;53.024;12.970;2022-11-20T09:25:31;16.60;;;11.10;;
3571;SDS011;7958;53.024;12.970;2022-11-20T09:27:58;18.77;;;11.57;;
3571;SDS011;7958;53.024;12.970;2022-11-20T09:30:24;15.50;;;9.50;;
3571;SDS011;7958;53.024;12.970;2022-11-20T09:32:52;15.57;;;11.30;;
3571;SDS011;7958;53.024;12.970;2022-11-20T09:35:19;18.00;;;10.90;;
3571;SDS011;7958;53.024;12.970;2022-11-20T09:37:45;14.77;;;10.83;;
3571;SDS011;7958;53.024;12.970;2022-11-20T09:40:17;16.93;;;10.73;;
3571;SDS011;7958;53.024;12.970;2022-11-20T09:42:47;16.70;;;10.77;;
3571;SDS011;7958;53.024;12.970;2022-11-20T09:45:16;18.50;;;11.30;;
3571;SDS011;7958;53.024;12.970;2022-11-20T09:47:57;17.50;;;10.97;;
3571;SDS011;7958;53.024;12.970;2022-11-20T09:50:31;17.90;;;10.87;;
3571;SDS011;7958;53.024;12.970;2022-11-20T09:53:11;17.73;;;11.53;;
3571;SDS011;7958;53.024;12.970;2022-11-20T09:55:39;17.50;;;11.40;;
3571;SDS011;7958;53.024;12.970;2022-11-20T09:58:16;19.70;;;12.60;;
3571;SDS011;7958;53.024;12.970;2022-11-20T10:00:48;17.47;;;11.47;;
3571;SDS011;7958;53.024;12.970;2022-11-20T10:03:19;15.93;;;11.33;;
3571;SDS011;7958;53.024;12.970;2022-11-20T10:05:51;16.40;;;10.57;;
3571;SDS011;7958;53.024;12.970;2022-11-20T10:08:20;30.70;;;18.27;;
3571;SDS011;7958;53.024;12.970;2022-11-20T10:10:49;17.20;;;11.43;;
3571;SDS011;7958;53.024;12.970;2022-11-20T10:13:26;21.90;;;12.70;;
3571;SDS011;7958;53.024;12.970;2022-11-20T10:16:00;18.97;;;13.40;;
3571;SDS011;7958;53.024;12.970;2022-11-20T10:18:38;26.63;;;16.17;;
3571;SDS011;7958;53.024;12.970;2022-11-20T10:21:16;22.33;;;15.73;;
3571;SDS011;7958;53.024;12.970;2022-11-20T10:24:01;17.83;;;11.13;;
3571;SDS011;7958;53.024;12.970;2022-11-20T10:26:38;20.43;;;13.87;;
3571;SDS011;7958;53.024;12.970;2022-11-20T10:29:11;14.50;;;10.43;;
3571;SDS011;7958;53.024;12.970;2022-11-20T10:31:41;32.87;;;25.20;;
3571;SDS011;7958;53.024;12.970;2022-11-20T10:34:14;20.00;;;12.50;;
3571;SDS011;7958;53.024;12.970;2022-11-20T10:36:47;17.87;;;12.10;;
3571;SDS011;7958;53.024;12.970;2022-11-20T10:39:17;15.30;;;10.60;;
3571;SDS011;7958;53.024;12.970;2022-11-20T10:41:49;14.63;;;10.83;;
3571;SDS011;7958;53.024;12.970;2022-11-20T10:44:17;16.13;;;11.10;;
3571;SDS011;7958;53.024;12.970;2022-11-20T10:47:09;16.10;;;11.00;;
3571;SDS011;7958;53.024;12.970;2022-11-20T10:49:40;17.30;;;10.30;;
3571;SDS011;7958;53.024;12.970;2022-11-20T10:52:09;15.17;;;10.30;;
3571;SDS011;7958;53.024;12.970;2022-11-20T10:54:39;15.63;;;10.97;;
3571;SDS011;7958;53.024;12.970;2022-11-20T10:57:15;16.33;;;10.97;;
3571;SDS011;7958;53.024;12.970;2022-11-20T10:59:51;15.47;;;10.93;;
3571;SDS011;7958;53.024;12.970;2022-11-20T11:02:22;13.60;;;9.80;;
3571;SDS011;7958;53.024;12.970;2022-11-20T11:04:52;14.63;;;9.57;;
3571;SDS011;7958;53.024;12.970;2022-11-20T11:07:21;13.13;;;9.03;;
3571;SDS011;7958;53.024;12.970;2022-11-20T11:09:55;14.10;;;9.43;;
3571;SDS011;7958;53.024;12.970;2022-11-20T11:12:25;15.03;;;10.10;;
3571;SDS011;7958;53.024;12.970;2022-11-20T11:14:53;13.77;;;9.33;;
3571;SDS011;7958;53.024;12.970;2022-11-20T11:17:24;15.97;;;10.60;;
3571;SDS011;7958;53.024;12.970;2022-11-20T11:20:14;13.67;;;9.33;;
3571;SDS011;7958;53.024;12.970;2022-11-20T11:22:42;14.20;;;9.80;;
3571;SDS011;7958;53.024;12.970;2022-11-20T11:25:12;13.20;;;9.97;;
3571;SDS011;7958;53.024;12.970;2022-11-20T11:27:46;11.93;;;8.57;;
3571;SDS011;7958;53.024;12.970;2022-11-20T11:30:14;13.03;;;9.00;;
3571;SDS011;7958;53.024;12.970;2022-11-20T11:32:42;11.73;;;8.70;;
3571;SDS011;7958;53.024;12.970;2022-11-20T11:35:20;17.20;;;11.13;;
3571;SDS011;7958;53.024;12.970;2022-11-20T11:37:48;14.63;;;9.23;;
3571;SDS011;7958;53.024;12.970;2022-11-20T11:40:16;15.70;;;9.27;;
3571;SDS011;7958;53.024;12.970;2022-11-20T11:42:44;11.53;;;8.00;;
3571;SDS011;7958;53.024;12.970;2022-11-20T11:45:14;9.93;;;7.80;;
3571;SDS011;7958;53.024;12.970;2022-11-20T11:47:43;17.37;;;11.57;;
3571;SDS011;7958;53.024;12.970;2022-11-20T11:50:17;11.57;;;8.40;;
3571;SDS011;7958;53.024;12.970;2022-11-20T11:52:53;12.23;;;8.40;;
3571;SDS011;7958;53.024;12.970;2022-11-20T11:55:30;11.43;;;8.40;;
3571;SDS011;7958;53.024;12.970;2022-11-20T11:58:00;17.93;;;11.60;;
3571;SDS011;7958;53.024;12.970;2022-11-20T12:00:37;12.77;;;9.80;;
3571;SDS011;7958;53.024;12.970;2022-11-20T12:03:09;11.77;;;9.10;;
3571;SDS011;7958;53.024;12.970;2022-11-20T12:05:42;10.73;;;8.20;;
3571;SDS011;7958;53.024;12.970;2022-11-20T12:08:12;11.03;;;8.67;;
3571;SDS011;7958;53.024;12.970;2022-11-20T12:10:43;13.37;;;8.50;;
3571;SDS011;7958;53.024;12.970;2022-11-20T12:13:20;10.30;;;7.57;;
3571;SDS011;7958;53.024;12.970;2022-11-20T12:15:50;9.40;;;6.70;;
3571;SDS011;7958;53.024;12.970;2022-11-20T12:18:17;11.03;;;8.03;;
3571;SDS011;7958;53.024;12.970;2022-11-20T12:20:51;10.37;;;8.10;;
3571;SDS011;7958;53.024;12.970;2022-11-20T12:23:28;9.77;;;7.30;;
3571;SDS011;7958;53.024;12.970;2022-11-20T12:26:00;9.67;;;7.67;;
3571;SDS011;7958;53.024;12.970;2022-11-20T12:28:34;9.70;;;7.43;;
3571;SDS011;7958;53.024;12.970;2022-11-20T12:31:12;11.40;;;7.50;;
3571;SDS011;7958;53.024;12.970;2022-11-20T12:33:48;11.50;;;8.60;;
3571;SDS011;7958;53.024;12.970;2022-11-20T12:36:26;9.90;;;6.80;;
3571;SDS011;7958;53.024;12.970;2022-11-20T12:39:05;9.07;;;7.10;;
3571;SDS011;7958;53.024;12.970;2022-11-20T12:41:51;8.57;;;7.03;;
3571;SDS011;7958;53.024;12.970;2022-11-20T12:44:46;11.10;;;7.43;;
3571;SDS011;7958;53.024;12.970;2022-11-20T12:47:42;9.57;;;7.70;;
3571;SDS011;7958;53.024;12.970;2022-11-20T12:50:17;9.67;;;7.20;;
3571;SDS011;7958;53.024;12.970;2022-11-20T12:52:51;10.80;;;7.43;;
3571;SDS011;7958;53.024;12.970;2022-11-20T12:55:25;11.20;;;7.87;;
3571;SDS011;7958;53.024;12.970;2022-11-20T12:57:57;16.30;;;10.43;;
3571;SDS011;7958;53.024;12.970;2022-11-20T13:00:24;10.17;;;8.10;;
3571;SDS011;7958;53.024;12.970;2022-11-20T13:03:13;11.30;;;9.23;;
3571;SDS011;7958;53.024;12.970;2022-11-20T13:05:54;12.77;;;9.10;;
3571;SDS011;7958;53.024;12.970;2022-11-20T13:08:27;10.00;;;7.90;;
3571;SDS011;7958;53.024;12.970;2022-11-20T13:10:56;11.67;;;7.90;;
3571;SDS011;7958;53.024;12.970;2022-11-20T13:13:29;12.40;;;8.17;;
3571;SDS011;7958;53.024;12.970;2022-11-20T13:16:00;10.17;;;7.67;;
3571;SDS011;7958;53.024;12.970;2022-11-20T13:18:34;10.37;;;8.03;;
3571;SDS011;7958;53.024;12.970;2022-11-20T13:21:12;11.70;;;7.60;;
3571;SDS011;7958;53.024;12.970;2022-11-20T13:23:41;10.27;;;8.10;;
3571;SDS011;7958;53.024;12.970;2022-11-20T13:26:13;10.53;;;7.97;;
3571;SDS011;7958;53.024;12.970;2022-11-20T13:28:42;9.80;;;7.10;;
3571;SDS011;7958;53.024;12.970;2022-11-20T13:31:09;12.40;;;8.00;;
3571;SDS011;7958;53.024;12.970;2022-11-20T13:33:51;9.20;;;6.67;;
3571;SDS011;7958;53.024;12.970;2022-11-20T13:36:21;10.80;;;7.70;;
3571;SDS011;7958;53.024;12.970;2022-11-20T13:38:51;10.77;;;7.57;;
3571;SDS011;7958;53.024;12.970;2022-11-20T13:41:23;9.37;;;7.50;;
3571;SDS011;7958;53.024;12.970;2022-11-20T13:44:05;11.10;;;7.80;;
3571;SDS011;7958;53.024;12.970;2022-11-20T13:46:37;12.20;;;7.70;;
3571;SDS011;7958;53.024;12.970;2022-11-20T13:49:08;8.93;;;6.50;;
3571;SDS011;7958;53.024;12.970;2022-11-20T13:51:37;8.27;;;7.00;;
3571;SDS011;7958;53.024;12.970;2022-11-20T13:54:14;10.50;;;6.50;;
3571;SDS011;7958;53.024;12.970;2022-11-20T13:56:52;11.63;;;8.30;;
3571;SDS011;7958;53.024;12.970;2022-11-20T13:59:29;10.53;;;8.10;;
3571;SDS011;7958;53.024;12.970;2022-11-20T14:02:11;11.40;;;7.93;;
3571;SDS011;7958;53.024;12.970;2022-11-20T14:04:42;11.30;;;7.60;;
3571;SDS011;7958;53.024;12.970;2022-11-20T14:07:11;8.70;;;7.03;;
3571;SDS011;7958;53.024;12.970;2022-11-20T14:09:48;10.27;;;7.40;;
3571;SDS011;7958;53.024;12.970;2022-11-20T14:12:16;9.77;;;6.80;;
3571;SDS011;7958;53.024;12.970;2022-11-20T14:14:47;7.50;;;6.07;;
3571;SDS011;7958;53.024;12.970;2022-11-20T14:17:17;7.83;;;6.00;;
3571;SDS011;7958;53.024;12.970;2022-11-20T14:19:45;9.23;;;6.50;;
3571;SDS011;7958;53.024;12.970;2022-11-20T14:22:17;11.47;;;7.90;;
3571;SDS011;7958;53.024;12.970;2022-11-20T14:24:46;10.40;;;7.90;;
3571;SDS011;7958;53.024;12.970;2022-11-20T14:27:16;12.60;;;8.10;;
3571;SDS011;7958;53.024;12.970;2022-11-20T14:29:44;13.17;;;8.77;;
3571;SDS011;7958;53.024;12.970;2022-11-20T14:32:14;9.57;;;7.10;;
3571;SDS011;7958;53.024;12.970;2022-11-20T14:34:41;10.17;;;7.30;;
3571;SDS011;7958;53.024;12.970;2022-11-20T14:37:10;10.17;;;7.30;;
3571;SDS011;7958;53.024;12.970;2022-11-20T14:39:40;14.03;;;8.37;;
3571;SDS011;7958;53.024;12.970;2022-11-20T14:42:14;10.83;;;7.10;;
3571;SDS011;7958;53.024;12.970;2022-11-20T14:44:42;11.93;;;7.83;;
3571;SDS011;7958;53.024;12.970;2022-11-20T14:47:10;13.23;;;8.83;;
3571;SDS011;7958;53.024;12.970;2022-11-20T14:49:38;11.20;;;8.13;;
3571;SDS011;7958;53.024;12.970;2022-11-20T14:52:10;13.27;;;9.90;;
3571;SDS011;7958;53.024;12.970;2022-11-20T14:54:42;12.90;;;8.47;;
3571;SDS011;7958;53.024;12.970;2022-11-20T14:57:20;10.37;;;7.57;;